sensor_id;sensor_type;location;lat;lon;timestamp;P1;durP1;ratioP1;P2;durP2;ratioP2
36551;SDS011;22559;54.176;12.102;2023-06-26T00:01:50;7.30;;;6.07;;
36551;SDS011;22559;54.176;12.102;2023-06-26T00:04:16;7.72;;;6.50;;
36551;SDS011;22559;54.176;12.102;2023-06-26T00:06:41;6.75;;;6.15;;
36551;SDS011;22559;54.176;12.102;2023-06-26T00:09:07;7.72;;;6.93;;
36551;SDS011;22559;54.176;12.102;2023-06-26T00:11:33;7.50;;;6.88;;
36551;SDS011;22559;54.176;12.102;2023-06-26T00:13:59;7.18;;;6.57;;
36551;SDS011;22559;54.176;12.102;2023-06-26T00:16:25;7.18;;;6.15;;
36551;SDS011;22559;54.176;12.102;2023-06-26T00:18:52;9.38;;;7.25;;
36551;SDS011;22559;54.176;12.102;2023-06-26T00:21:18;8.93;;;7.00;;
36551;SDS011;22559;54.176;12.102;2023-06-26T00:23:44;7.53;;;6.82;;
36551;SDS011;22559;54.176;12.102;2023-06-26T00:26:10;8.57;;;6.90;;
36551;SDS011;22559;54.176;12.102;2023-06-26T00:28:36;7.38;;;6.68;;
36551;SDS011;22559;54.176;12.102;2023-06-26T00:31:02;8.68;;;7.18;;
36551;SDS011;22559;54.176;12.102;2023-06-26T00:33:27;8.45;;;7.63;;
36551;SDS011;22559;54.176;12.102;2023-06-26T00:35:53;7.47;;;6.78;;
36551;SDS011;22559;54.176;12.102;2023-06-26T00:38:19;7.18;;;6.57;;
36551;SDS011;22559;54.176;12.102;2023-06-26T00:40:45;7.10;;;6.35;;
36551;SDS011;22559;54.176;12.102;2023-06-26T00:43:10;8.98;;;7.20;;
36551;SDS011;22559;54.176;12.102;2023-06-26T00:45:36;9.57;;;6.75;;
36551;SDS011;22559;54.176;12.102;2023-06-26T00:48:01;7.68;;;6.57;;
36551;SDS011;22559;54.176;12.102;2023-06-26T00:50:28;7.43;;;6.25;;
36551;SDS011;22559;54.176;12.102;2023-06-26T00:52:54;7.60;;;6.80;;
36551;SDS011;22559;54.176;12.102;2023-06-26T00:55:25;7.15;;;6.45;;
36551;SDS011;22559;54.176;12.102;2023-06-26T00:57:51;7.88;;;7.07;;
36551;SDS011;22559;54.176;12.102;2023-06-26T01:00:17;7.75;;;6.90;;
36551;SDS011;22559;54.176;12.102;2023-06-26T01:02:43;6.93;;;6.32;;
36551;SDS011;22559;54.176;12.102;2023-06-26T01:05:09;7.30;;;6.20;;
36551;SDS011;22559;54.176;12.102;2023-06-26T01:07:38;8.20;;;6.78;;
36551;SDS011;22559;54.176;12.102;2023-06-26T01:10:05;7.55;;;6.75;;
36551;SDS011;22559;54.176;12.102;2023-06-26T01:12:32;7.90;;;7.20;;
36551;SDS011;22559;54.176;12.102;2023-06-26T01:14:58;8.40;;;7.55;;
36551;SDS011;22559;54.176;12.102;2023-06-26T01:17:25;7.43;;;6.72;;
36551;SDS011;22559;54.176;12.102;2023-06-26T01:19:57;8.90;;;7.25;;
36551;SDS011;22559;54.176;12.102;2023-06-26T01:22:32;7.65;;;6.95;;
36551;SDS011;22559;54.176;12.102;2023-06-26T01:25:12;8.80;;;7.27;;
36551;SDS011;22559;54.176;12.102;2023-06-26T01:27:43;8.63;;;7.72;;
36551;SDS011;22559;54.176;12.102;2023-06-26T01:30:15;10.73;;;8.45;;
36551;SDS011;22559;54.176;12.102;2023-06-26T01:32:42;8.43;;;7.63;;
36551;SDS011;22559;54.176;12.102;2023-06-26T01:35:09;8.48;;;7.68;;
36551;SDS011;22559;54.176;12.102;2023-06-26T01:37:35;8.00;;;7.20;;
36551;SDS011;22559;54.176;12.102;2023-06-26T01:40:01;8.35;;;7.45;;
36551;SDS011;22559;54.176;12.102;2023-06-26T01:42:30;9.05;;;7.65;;
36551;SDS011;22559;54.176;12.102;2023-06-26T01:45:01;8.93;;;8.02;;
36551;SDS011;22559;54.176;12.102;2023-06-26T01:47:29;10.83;;;8.23;;
36551;SDS011;22559;54.176;12.102;2023-06-26T01:50:11;8.68;;;7.65;;
36551;SDS011;22559;54.176;12.102;2023-06-26T01:52:43;8.57;;;7.78;;
36551;SDS011;22559;54.176;12.102;2023-06-26T01:55:22;8.90;;;7.90;;
36551;SDS011;22559;54.176;12.102;2023-06-26T01:57:58;8.50;;;7.60;;
36551;SDS011;22559;54.176;12.102;2023-06-26T02:00:24;8.85;;;7.97;;
36551;SDS011;22559;54.176;12.102;2023-06-26T02:02:51;9.10;;;8.10;;
36551;SDS011;22559;54.176;12.102;2023-06-26T02:05:17;8.23;;;7.32;;
36551;SDS011;22559;54.176;12.102;2023-06-26T02:07:43;8.30;;;7.45;;
36551;SDS011;22559;54.176;12.102;2023-06-26T02:10:09;8.35;;;7.45;;
36551;SDS011;22559;54.176;12.102;2023-06-26T02:12:35;9.07;;;7.75;;
36551;SDS011;22559;54.176;12.102;2023-06-26T02:15:01;7.87;;;7.17;;
36551;SDS011;22559;54.176;12.102;2023-06-26T02:17:27;8.75;;;7.60;;
36551;SDS011;22559;54.176;12.102;2023-06-26T02:19:53;8.70;;;7.88;;
36551;SDS011;22559;54.176;12.102;2023-06-26T02:22:18;9.65;;;8.25;;
36551;SDS011;22559;54.176;12.102;2023-06-26T02:24:44;10.30;;;8.18;;
36551;SDS011;22559;54.176;12.102;2023-06-26T02:27:10;8.68;;;7.85;;
36551;SDS011;22559;54.176;12.102;2023-06-26T02:29:36;8.27;;;7.47;;
36551;SDS011;22559;54.176;12.102;2023-06-26T02:32:03;9.32;;;8.27;;
36551;SDS011;22559;54.176;12.102;2023-06-26T02:34:28;9.15;;;8.25;;
36551;SDS011;22559;54.176;12.102;2023-06-26T02:36:55;8.70;;;7.80;;
36551;SDS011;22559;54.176;12.102;2023-06-26T02:39:21;9.50;;;7.95;;
36551;SDS011;22559;54.176;12.102;2023-06-26T02:41:48;8.82;;;8.02;;
36551;SDS011;22559;54.176;12.102;2023-06-26T02:44:14;9.63;;;8.68;;
36551;SDS011;22559;54.176;12.102;2023-06-26T02:46:40;10.07;;;8.63;;
36551;SDS011;22559;54.176;12.102;2023-06-26T02:49:06;9.25;;;8.27;;
36551;SDS011;22559;54.176;12.102;2023-06-26T02:51:32;9.35;;;8.43;;
36551;SDS011;22559;54.176;12.102;2023-06-26T02:53:58;8.63;;;7.72;;
36551;SDS011;22559;54.176;12.102;2023-06-26T02:56:24;8.77;;;7.97;;
36551;SDS011;22559;54.176;12.102;2023-06-26T02:58:53;12.15;;;8.68;;
36551;SDS011;22559;54.176;12.102;2023-06-26T03:01:19;10.30;;;8.80;;
36551;SDS011;22559;54.176;12.102;2023-06-26T03:03:45;11.98;;;9.02;;
36551;SDS011;22559;54.176;12.102;2023-06-26T03:06:12;13.97;;;10.23;;
36551;SDS011;22559;54.176;12.102;2023-06-26T03:08:37;16.92;;;9.95;;
36551;SDS011;22559;54.176;12.102;2023-06-26T03:11:04;15.88;;;10.30;;
36551;SDS011;22559;54.176;12.102;2023-06-26T03:13:31;18.75;;;10.55;;
36551;SDS011;22559;54.176;12.102;2023-06-26T03:15:57;19.00;;;10.15;;
36551;SDS011;22559;54.176;12.102;2023-06-26T03:18:23;16.33;;;10.50;;
36551;SDS011;22559;54.176;12.102;2023-06-26T03:20:49;21.80;;;11.23;;
36551;SDS011;22559;54.176;12.102;2023-06-26T03:23:14;20.90;;;11.50;;
36551;SDS011;22559;54.176;12.102;2023-06-26T03:25:40;21.67;;;12.10;;
36551;SDS011;22559;54.176;12.102;2023-06-26T03:28:05;21.20;;;11.30;;
36551;SDS011;22559;54.176;12.102;2023-06-26T03:30:31;15.27;;;10.43;;
36551;SDS011;22559;54.176;12.102;2023-06-26T03:32:57;16.25;;;10.82;;
36551;SDS011;22559;54.176;12.102;2023-06-26T03:35:22;16.70;;;10.43;;
36551;SDS011;22559;54.176;12.102;2023-06-26T03:37:48;16.00;;;9.55;;
36551;SDS011;22559;54.176;12.102;2023-06-26T03:40:14;12.02;;;9.82;;
36551;SDS011;22559;54.176;12.102;2023-06-26T03:42:40;15.20;;;9.90;;
36551;SDS011;22559;54.176;12.102;2023-06-26T03:45:06;11.32;;;10.13;;
36551;SDS011;22559;54.176;12.102;2023-06-26T03:47:32;43.78;;;28.83;;
36551;SDS011;22559;54.176;12.102;2023-06-26T03:49:58;18.58;;;10.73;;
36551;SDS011;22559;54.176;12.102;2023-06-26T03:52:24;15.18;;;9.02;;
36551;SDS011;22559;54.176;12.102;2023-06-26T03:54:49;12.43;;;9.45;;
36551;SDS011;22559;54.176;12.102;2023-06-26T03:57:15;9.88;;;8.80;;
36551;SDS011;22559;54.176;12.102;2023-06-26T03:59:40;10.88;;;9.77;;
36551;SDS011;22559;54.176;12.102;2023-06-26T04:02:06;10.77;;;9.23;;
36551;SDS011;22559;54.176;12.102;2023-06-26T04:04:32;12.88;;;9.73;;
36551;SDS011;22559;54.176;12.102;2023-06-26T04:06:57;11.82;;;9.65;;
36551;SDS011;22559;54.176;12.102;2023-06-26T04:09:24;10.20;;;9.02;;
36551;SDS011;22559;54.176;12.102;2023-06-26T04:11:50;14.60;;;10.13;;
36551;SDS011;22559;54.176;12.102;2023-06-26T04:14:16;14.63;;;10.23;;
36551;SDS011;22559;54.176;12.102;2023-06-26T04:16:42;13.93;;;10.25;;
36551;SDS011;22559;54.176;12.102;2023-06-26T04:19:08;11.38;;;9.88;;
36551;SDS011;22559;54.176;12.102;2023-06-26T04:21:35;10.55;;;8.88;;
36551;SDS011;22559;54.176;12.102;2023-06-26T04:24:00;15.50;;;10.43;;
36551;SDS011;22559;54.176;12.102;2023-06-26T04:26:26;12.48;;;10.05;;
36551;SDS011;22559;54.176;12.102;2023-06-26T04:28:53;11.90;;;10.13;;
36551;SDS011;22559;54.176;12.102;2023-06-26T04:31:19;13.30;;;9.85;;
36551;SDS011;22559;54.176;12.102;2023-06-26T04:33:45;13.05;;;9.75;;
36551;SDS011;22559;54.176;12.102;2023-06-26T04:36:15;13.52;;;10.10;;
36551;SDS011;22559;54.176;12.102;2023-06-26T04:38:44;11.82;;;10.27;;
36551;SDS011;22559;54.176;12.102;2023-06-26T04:41:09;14.77;;;10.80;;
36551;SDS011;22559;54.176;12.102;2023-06-26T04:43:35;13.93;;;11.45;;
36551;SDS011;22559;54.176;12.102;2023-06-26T04:46:04;18.08;;;11.07;;
36551;SDS011;22559;54.176;12.102;2023-06-26T04:48:30;13.02;;;10.73;;
36551;SDS011;22559;54.176;12.102;2023-06-26T04:50:56;13.45;;;11.75;;
36551;SDS011;22559;54.176;12.102;2023-06-26T04:53:23;13.32;;;11.02;;
36551;SDS011;22559;54.176;12.102;2023-06-26T04:55:50;15.40;;;11.57;;
36551;SDS011;22559;54.176;12.102;2023-06-26T04:58:16;15.00;;;12.63;;
36551;SDS011;22559;54.176;12.102;2023-06-26T05:00:42;15.30;;;12.20;;
36551;SDS011;22559;54.176;12.102;2023-06-26T05:03:11;14.10;;;11.57;;
36551;SDS011;22559;54.176;12.102;2023-06-26T05:05:38;15.43;;;12.63;;
36551;SDS011;22559;54.176;12.102;2023-06-26T05:08:16;18.48;;;14.02;;
36551;SDS011;22559;54.176;12.102;2023-06-26T05:10:43;17.92;;;12.77;;
36551;SDS011;22559;54.176;12.102;2023-06-26T05:13:10;18.30;;;13.77;;
36551;SDS011;22559;54.176;12.102;2023-06-26T05:15:35;19.35;;;13.45;;
36551;SDS011;22559;54.176;12.102;2023-06-26T05:18:02;20.38;;;13.10;;
36551;SDS011;22559;54.176;12.102;2023-06-26T05:20:27;13.23;;;11.80;;
36551;SDS011;22559;54.176;12.102;2023-06-26T05:22:53;14.63;;;11.00;;
36551;SDS011;22559;54.176;12.102;2023-06-26T05:25:19;13.00;;;10.40;;
36551;SDS011;22559;54.176;12.102;2023-06-26T05:27:47;12.55;;;11.25;;
36551;SDS011;22559;54.176;12.102;2023-06-26T05:30:13;11.32;;;10.23;;
36551;SDS011;22559;54.176;12.102;2023-06-26T05:32:39;12.77;;;9.77;;
36551;SDS011;22559;54.176;12.102;2023-06-26T05:35:06;12.25;;;9.65;;
36551;SDS011;22559;54.176;12.102;2023-06-26T05:37:33;11.63;;;9.85;;
36551;SDS011;22559;54.176;12.102;2023-06-26T05:39:59;12.50;;;9.75;;
36551;SDS011;22559;54.176;12.102;2023-06-26T05:42:26;10.70;;;9.60;;
36551;SDS011;22559;54.176;12.102;2023-06-26T05:44:53;11.18;;;9.35;;
36551;SDS011;22559;54.176;12.102;2023-06-26T05:47:18;10.63;;;9.23;;
36551;SDS011;22559;54.176;12.102;2023-06-26T05:49:44;13.40;;;9.80;;
36551;SDS011;22559;54.176;12.102;2023-06-26T05:52:10;10.55;;;9.40;;
36551;SDS011;22559;54.176;12.102;2023-06-26T05:54:36;11.15;;;9.38;;
36551;SDS011;22559;54.176;12.102;2023-06-26T05:57:02;10.18;;;9.00;;
36551;SDS011;22559;54.176;12.102;2023-06-26T05:59:30;10.38;;;8.95;;
36551;SDS011;22559;54.176;12.102;2023-06-26T06:01:57;11.30;;;8.93;;
36551;SDS011;22559;54.176;12.102;2023-06-26T06:04:23;12.15;;;9.40;;
36551;SDS011;22559;54.176;12.102;2023-06-26T06:06:49;9.52;;;8.63;;
36551;SDS011;22559;54.176;12.102;2023-06-26T06:09:15;11.80;;;9.73;;
36551;SDS011;22559;54.176;12.102;2023-06-26T06:11:40;11.40;;;9.02;;
36551;SDS011;22559;54.176;12.102;2023-06-26T06:14:06;11.65;;;8.45;;
36551;SDS011;22559;54.176;12.102;2023-06-26T06:16:31;11.65;;;8.32;;
36551;SDS011;22559;54.176;12.102;2023-06-26T06:18:57;9.65;;;8.43;;
36551;SDS011;22559;54.176;12.102;2023-06-26T06:21:23;9.40;;;8.30;;
36551;SDS011;22559;54.176;12.102;2023-06-26T06:23:48;9.35;;;8.32;;
36551;SDS011;22559;54.176;12.102;2023-06-26T06:26:14;10.73;;;8.98;;
36551;SDS011;22559;54.176;12.102;2023-06-26T06:28:40;9.00;;;8.10;;
36551;SDS011;22559;54.176;12.102;2023-06-26T06:31:05;9.65;;;8.15;;
36551;SDS011;22559;54.176;12.102;2023-06-26T06:33:31;11.70;;;8.18;;
36551;SDS011;22559;54.176;12.102;2023-06-26T06:35:56;12.80;;;8.43;;
36551;SDS011;22559;54.176;12.102;2023-06-26T06:38:22;10.18;;;7.75;;
36551;SDS011;22559;54.176;12.102;2023-06-26T06:40:48;8.40;;;7.60;;
36551;SDS011;22559;54.176;12.102;2023-06-26T06:43:14;11.18;;;7.55;;
36551;SDS011;22559;54.176;12.102;2023-06-26T06:45:39;8.75;;;7.68;;
36551;SDS011;22559;54.176;12.102;2023-06-26T06:48:05;8.98;;;7.90;;
36551;SDS011;22559;54.176;12.102;2023-06-26T06:50:31;19.15;;;14.88;;
36551;SDS011;22559;54.176;12.102;2023-06-26T06:52:56;8.13;;;7.32;;
36551;SDS011;22559;54.176;12.102;2023-06-26T06:55:22;8.27;;;7.57;;
36551;SDS011;22559;54.176;12.102;2023-06-26T06:57:48;7.90;;;7.20;;
36551;SDS011;22559;54.176;12.102;2023-06-26T07:00:15;10.35;;;7.38;;
36551;SDS011;22559;54.176;12.102;2023-06-26T07:02:43;9.20;;;7.60;;
36551;SDS011;22559;54.176;12.102;2023-06-26T07:05:09;13.98;;;8.52;;
36551;SDS011;22559;54.176;12.102;2023-06-26T07:07:35;8.23;;;7.28;;
36551;SDS011;22559;54.176;12.102;2023-06-26T07:10:06;10.65;;;7.90;;
36551;SDS011;22559;54.176;12.102;2023-06-26T07:12:36;7.60;;;6.80;;
36551;SDS011;22559;54.176;12.102;2023-06-26T07:15:03;7.93;;;7.05;;
36551;SDS011;22559;54.176;12.102;2023-06-26T07:17:29;8.93;;;7.05;;
36551;SDS011;22559;54.176;12.102;2023-06-26T07:19:55;8.75;;;7.00;;
36551;SDS011;22559;54.176;12.102;2023-06-26T07:22:21;7.32;;;6.50;;
36551;SDS011;22559;54.176;12.102;2023-06-26T07:24:47;45.58;;;30.13;;
36551;SDS011;22559;54.176;12.102;2023-06-26T07:27:19;6.78;;;6.18;;
36551;SDS011;22559;54.176;12.102;2023-06-26T07:29:48;7.55;;;6.85;;
36551;SDS011;22559;54.176;12.102;2023-06-26T07:32:17;7.28;;;6.57;;
36551;SDS011;22559;54.176;12.102;2023-06-26T07:34:45;8.00;;;7.10;;
36551;SDS011;22559;54.176;12.102;2023-06-26T07:37:11;7.50;;;6.80;;
36551;SDS011;22559;54.176;12.102;2023-06-26T07:39:37;7.03;;;6.30;;
36551;SDS011;22559;54.176;12.102;2023-06-26T07:42:02;6.35;;;5.85;;
36551;SDS011;22559;54.176;12.102;2023-06-26T07:44:28;6.78;;;6.28;;
36551;SDS011;22559;54.176;12.102;2023-06-26T07:46:54;7.32;;;6.13;;
36551;SDS011;22559;54.176;12.102;2023-06-26T07:49:20;7.10;;;6.40;;
36551;SDS011;22559;54.176;12.102;2023-06-26T07:51:45;6.88;;;6.28;;
36551;SDS011;22559;54.176;12.102;2023-06-26T07:54:11;7.05;;;6.35;;
36551;SDS011;22559;54.176;12.102;2023-06-26T07:59:23;7.60;;;6.75;;
36551;SDS011;22559;54.176;12.102;2023-06-26T08:01:50;11.20;;;6.72;;
36551;SDS011;22559;54.176;12.102;2023-06-26T08:04:20;7.18;;;6.47;;
36551;SDS011;22559;54.176;12.102;2023-06-26T08:06:50;7.30;;;5.75;;
36551;SDS011;22559;54.176;12.102;2023-06-26T08:09:17;6.07;;;5.57;;
36551;SDS011;22559;54.176;12.102;2023-06-26T08:11:44;6.28;;;5.75;;
36551;SDS011;22559;54.176;12.102;2023-06-26T08:14:10;6.60;;;6.00;;
36551;SDS011;22559;54.176;12.102;2023-06-26T08:16:39;7.13;;;5.60;;
36551;SDS011;22559;54.176;12.102;2023-06-26T08:19:06;6.43;;;5.45;;
36551;SDS011;22559;54.176;12.102;2023-06-26T08:21:33;6.13;;;5.40;;
36551;SDS011;22559;54.176;12.102;2023-06-26T08:23:58;5.85;;;5.32;;
36551;SDS011;22559;54.176;12.102;2023-06-26T08:26:24;5.43;;;4.93;;
36551;SDS011;22559;54.176;12.102;2023-06-26T08:28:50;6.00;;;4.97;;
36551;SDS011;22559;54.176;12.102;2023-06-26T08:31:16;5.22;;;4.82;;
36551;SDS011;22559;54.176;12.102;2023-06-26T08:33:42;6.63;;;4.80;;
36551;SDS011;22559;54.176;12.102;2023-06-26T08:36:07;5.95;;;5.35;;
36551;SDS011;22559;54.176;12.102;2023-06-26T08:38:33;5.53;;;4.90;;
36551;SDS011;22559;54.176;12.102;2023-06-26T08:40:59;5.32;;;4.85;;
36551;SDS011;22559;54.176;12.102;2023-06-26T08:43:25;5.00;;;4.60;;
36551;SDS011;22559;54.176;12.102;2023-06-26T08:45:52;6.32;;;5.78;;
36551;SDS011;22559;54.176;12.102;2023-06-26T08:48:18;9.40;;;5.38;;
36551;SDS011;22559;54.176;12.102;2023-06-26T08:50:44;5.78;;;4.90;;
36551;SDS011;22559;54.176;12.102;2023-06-26T08:53:18;4.85;;;4.43;;
36551;SDS011;22559;54.176;12.102;2023-06-26T08:55:54;4.78;;;4.38;;
36551;SDS011;22559;54.176;12.102;2023-06-26T08:58:23;5.43;;;4.93;;
36551;SDS011;22559;54.176;12.102;2023-06-26T09:00:49;5.88;;;4.63;;
36551;SDS011;22559;54.176;12.102;2023-06-26T09:03:15;5.60;;;5.15;;
36551;SDS011;22559;54.176;12.102;2023-06-26T09:05:41;4.95;;;4.47;;
36551;SDS011;22559;54.176;12.102;2023-06-26T09:08:07;5.35;;;4.85;;
36551;SDS011;22559;54.176;12.102;2023-06-26T09:10:33;5.40;;;4.25;;
36551;SDS011;22559;54.176;12.102;2023-06-26T09:12:59;7.63;;;4.70;;
36551;SDS011;22559;54.176;12.102;2023-06-26T09:15:36;4.93;;;4.45;;
36551;SDS011;22559;54.176;12.102;2023-06-26T09:18:04;5.97;;;4.70;;
36551;SDS011;22559;54.176;12.102;2023-06-26T09:20:31;5.05;;;4.65;;
36551;SDS011;22559;54.176;12.102;2023-06-26T09:23:00;5.20;;;4.70;;
36551;SDS011;22559;54.176;12.102;2023-06-26T09:25:26;5.18;;;4.70;;
36551;SDS011;22559;54.176;12.102;2023-06-26T09:27:53;7.47;;;5.10;;
36551;SDS011;22559;54.176;12.102;2023-06-26T09:30:19;6.50;;;4.43;;
36551;SDS011;22559;54.176;12.102;2023-06-26T09:32:45;4.93;;;4.53;;
36551;SDS011;22559;54.176;12.102;2023-06-26T09:35:11;8.43;;;4.40;;
36551;SDS011;22559;54.176;12.102;2023-06-26T09:37:37;5.95;;;4.57;;
36551;SDS011;22559;54.176;12.102;2023-06-26T09:40:03;5.03;;;4.63;;
36551;SDS011;22559;54.176;12.102;2023-06-26T09:42:30;5.30;;;4.80;;
36551;SDS011;22559;54.176;12.102;2023-06-26T09:44:56;6.25;;;5.15;;
36551;SDS011;22559;54.176;12.102;2023-06-26T09:47:23;5.40;;;4.90;;
36551;SDS011;22559;54.176;12.102;2023-06-26T09:49:49;6.72;;;4.88;;
36551;SDS011;22559;54.176;12.102;2023-06-26T09:52:17;4.78;;;4.47;;
36551;SDS011;22559;54.176;12.102;2023-06-26T09:54:44;5.80;;;5.10;;
36551;SDS011;22559;54.176;12.102;2023-06-26T09:57:15;4.78;;;4.38;;
36551;SDS011;22559;54.176;12.102;2023-06-26T09:59:42;5.68;;;4.55;;
36551;SDS011;22559;54.176;12.102;2023-06-26T10:02:11;5.00;;;4.50;;
36551;SDS011;22559;54.176;12.102;2023-06-26T10:04:37;4.90;;;4.50;;
36551;SDS011;22559;54.176;12.102;2023-06-26T10:07:06;5.40;;;4.85;;
36551;SDS011;22559;54.176;12.102;2023-06-26T10:09:37;5.78;;;4.65;;
36551;SDS011;22559;54.176;12.102;2023-06-26T10:12:11;6.63;;;4.75;;
36551;SDS011;22559;54.176;12.102;2023-06-26T10:14:42;5.57;;;4.78;;
36551;SDS011;22559;54.176;12.102;2023-06-26T10:17:15;5.40;;;4.90;;
36551;SDS011;22559;54.176;12.102;2023-06-26T10:19:44;5.63;;;5.18;;
36551;SDS011;22559;54.176;12.102;2023-06-26T10:22:12;5.90;;;5.13;;
36551;SDS011;22559;54.176;12.102;2023-06-26T10:24:43;6.85;;;4.65;;
36551;SDS011;22559;54.176;12.102;2023-06-26T10:27:21;5.10;;;4.70;;
36551;SDS011;22559;54.176;12.102;2023-06-26T10:29:52;5.70;;;5.20;;
36551;SDS011;22559;54.176;12.102;2023-06-26T10:32:20;6.25;;;5.43;;
36551;SDS011;22559;54.176;12.102;2023-06-26T10:34:48;7.82;;;5.68;;
36551;SDS011;22559;54.176;12.102;2023-06-26T10:37:14;5.38;;;4.97;;
36551;SDS011;22559;54.176;12.102;2023-06-26T10:39:50;5.78;;;4.88;;
36551;SDS011;22559;54.176;12.102;2023-06-26T10:42:17;5.35;;;4.85;;
36551;SDS011;22559;54.176;12.102;2023-06-26T10:44:44;5.50;;;5.10;;
36551;SDS011;22559;54.176;12.102;2023-06-26T10:47:12;5.85;;;4.88;;
36551;SDS011;22559;54.176;12.102;2023-06-26T10:49:55;5.82;;;5.18;;
36551;SDS011;22559;54.176;12.102;2023-06-26T10:52:21;8.27;;;5.50;;
36551;SDS011;22559;54.176;12.102;2023-06-26T10:54:46;6.60;;;5.28;;
36551;SDS011;22559;54.176;12.102;2023-06-26T10:57:12;5.72;;;5.22;;
36551;SDS011;22559;54.176;12.102;2023-06-26T10:59:49;6.13;;;5.07;;
36551;SDS011;22559;54.176;12.102;2023-06-26T11:02:49;5.60;;;5.07;;
36551;SDS011;22559;54.176;12.102;2023-06-26T11:05:28;7.63;;;5.43;;
36551;SDS011;22559;54.176;12.102;2023-06-26T11:08:04;5.22;;;4.80;;
36551;SDS011;22559;54.176;12.102;2023-06-26T11:13:26;8.18;;;5.45;;
36551;SDS011;22559;54.176;12.102;2023-06-26T11:15:52;5.90;;;5.38;;
36551;SDS011;22559;54.176;12.102;2023-06-26T11:18:21;5.72;;;5.22;;
36551;SDS011;22559;54.176;12.102;2023-06-26T11:20:49;6.30;;;5.70;;
36551;SDS011;22559;54.176;12.102;2023-06-26T11:23:14;9.88;;;6.15;;
36551;SDS011;22559;54.176;12.102;2023-06-26T11:25:47;8.32;;;7.45;;
36551;SDS011;22559;54.176;12.102;2023-06-26T11:28:13;6.82;;;6.07;;
36551;SDS011;22559;54.176;12.102;2023-06-26T11:30:38;8.68;;;6.20;;
36551;SDS011;22559;54.176;12.102;2023-06-26T11:33:10;7.65;;;5.57;;
36551;SDS011;22559;54.176;12.102;2023-06-26T11:35:35;6.75;;;5.32;;
36551;SDS011;22559;54.176;12.102;2023-06-26T11:38:02;6.30;;;5.70;;
36551;SDS011;22559;54.176;12.102;2023-06-26T11:40:35;6.28;;;5.53;;
36551;SDS011;22559;54.176;12.102;2023-06-26T11:43:02;5.45;;;5.00;;
36551;SDS011;22559;54.176;12.102;2023-06-26T11:45:29;5.78;;;5.20;;
36551;SDS011;22559;54.176;12.102;2023-06-26T11:47:56;6.05;;;5.40;;
36551;SDS011;22559;54.176;12.102;2023-06-26T11:50:23;7.05;;;5.70;;
36551;SDS011;22559;54.176;12.102;2023-06-26T11:53:07;7.00;;;6.40;;
36551;SDS011;22559;54.176;12.102;2023-06-26T11:55:40;7.60;;;5.88;;
36551;SDS011;22559;54.176;12.102;2023-06-26T11:58:07;6.03;;;5.43;;
36551;SDS011;22559;54.176;12.102;2023-06-26T12:00:32;6.82;;;5.60;;
36551;SDS011;22559;54.176;12.102;2023-06-26T12:02:58;7.25;;;5.95;;
36551;SDS011;22559;54.176;12.102;2023-06-26T12:05:24;21.08;;;7.72;;
36551;SDS011;22559;54.176;12.102;2023-06-26T12:07:50;19.70;;;8.18;;
36551;SDS011;22559;54.176;12.102;2023-06-26T12:10:16;19.23;;;7.93;;
36551;SDS011;22559;54.176;12.102;2023-06-26T12:12:43;27.00;;;9.98;;
36551;SDS011;22559;54.176;12.102;2023-06-26T12:15:12;21.83;;;10.63;;
36551;SDS011;22559;54.176;12.102;2023-06-26T12:17:39;10.48;;;6.75;;
36551;SDS011;22559;54.176;12.102;2023-06-26T12:20:05;6.85;;;5.47;;
36551;SDS011;22559;54.176;12.102;2023-06-26T12:22:42;16.52;;;7.43;;
36551;SDS011;22559;54.176;12.102;2023-06-26T12:25:10;56.90;;;17.00;;
36551;SDS011;22559;54.176;12.102;2023-06-26T12:27:35;38.75;;;15.98;;
36551;SDS011;22559;54.176;12.102;2023-06-26T12:30:04;35.30;;;17.55;;
36551;SDS011;22559;54.176;12.102;2023-06-26T12:32:30;29.52;;;17.83;;
36551;SDS011;22559;54.176;12.102;2023-06-26T12:34:56;33.40;;;18.35;;
36551;SDS011;22559;54.176;12.102;2023-06-26T12:37:23;35.53;;;18.23;;
36551;SDS011;22559;54.176;12.102;2023-06-26T12:39:49;27.60;;;16.38;;
36551;SDS011;22559;54.176;12.102;2023-06-26T12:42:17;25.52;;;14.15;;
36551;SDS011;22559;54.176;12.102;2023-06-26T12:44:51;25.50;;;14.45;;
36551;SDS011;22559;54.176;12.102;2023-06-26T12:47:17;26.88;;;15.70;;
36551;SDS011;22559;54.176;12.102;2023-06-26T12:49:49;24.35;;;13.30;;
36551;SDS011;22559;54.176;12.102;2023-06-26T12:52:16;19.95;;;13.55;;
36551;SDS011;22559;54.176;12.102;2023-06-26T12:54:44;22.77;;;13.38;;
36551;SDS011;22559;54.176;12.102;2023-06-26T12:57:11;20.20;;;14.57;;
36551;SDS011;22559;54.176;12.102;2023-06-26T12:59:39;21.33;;;13.50;;
36551;SDS011;22559;54.176;12.102;2023-06-26T13:02:05;18.45;;;12.38;;
36551;SDS011;22559;54.176;12.102;2023-06-26T13:04:32;25.50;;;12.25;;
36551;SDS011;22559;54.176;12.102;2023-06-26T13:06:58;17.63;;;11.65;;
36551;SDS011;22559;54.176;12.102;2023-06-26T13:09:23;16.73;;;11.73;;
36551;SDS011;22559;54.176;12.102;2023-06-26T13:11:52;18.15;;;12.10;;
36551;SDS011;22559;54.176;12.102;2023-06-26T13:14:21;17.08;;;11.48;;
36551;SDS011;22559;54.176;12.102;2023-06-26T13:16:46;15.50;;;9.50;;
36551;SDS011;22559;54.176;12.102;2023-06-26T13:19:12;14.32;;;9.20;;
36551;SDS011;22559;54.176;12.102;2023-06-26T13:21:38;11.57;;;8.60;;
36551;SDS011;22559;54.176;12.102;2023-06-26T13:24:04;12.90;;;9.48;;
36551;SDS011;22559;54.176;12.102;2023-06-26T13:26:30;14.20;;;9.25;;
36551;SDS011;22559;54.176;12.102;2023-06-26T13:28:56;13.10;;;8.93;;
36551;SDS011;22559;54.176;12.102;2023-06-26T13:31:23;12.23;;;8.75;;
36551;SDS011;22559;54.176;12.102;2023-06-26T13:33:49;13.85;;;7.80;;
36551;SDS011;22559;54.176;12.102;2023-06-26T13:36:15;10.73;;;8.00;;
36551;SDS011;22559;54.176;12.102;2023-06-26T13:38:41;10.68;;;7.07;;
36551;SDS011;22559;54.176;12.102;2023-06-26T13:41:07;9.88;;;6.88;;
36551;SDS011;22559;54.176;12.102;2023-06-26T13:43:32;12.30;;;6.63;;
36551;SDS011;22559;54.176;12.102;2023-06-26T13:45:58;17.40;;;12.73;;
36551;SDS011;22559;54.176;12.102;2023-06-26T13:48:25;10.35;;;7.18;;
36551;SDS011;22559;54.176;12.102;2023-06-26T13:50:50;13.77;;;9.48;;
36551;SDS011;22559;54.176;12.102;2023-06-26T13:53:17;12.98;;;8.20;;
36551;SDS011;22559;54.176;12.102;2023-06-26T13:55:42;9.40;;;7.60;;
36551;SDS011;22559;54.176;12.102;2023-06-26T13:58:08;13.20;;;7.57;;
36551;SDS011;22559;54.176;12.102;2023-06-26T14:00:35;12.25;;;7.80;;
36551;SDS011;22559;54.176;12.102;2023-06-26T14:03:01;12.57;;;8.10;;
36551;SDS011;22559;54.176;12.102;2023-06-26T14:05:30;14.15;;;8.15;;
36551;SDS011;22559;54.176;12.102;2023-06-26T14:07:56;12.05;;;7.10;;
36551;SDS011;22559;54.176;12.102;2023-06-26T14:10:21;11.68;;;6.15;;
36551;SDS011;22559;54.176;12.102;2023-06-26T14:12:48;12.93;;;6.20;;
36551;SDS011;22559;54.176;12.102;2023-06-26T14:15:14;8.50;;;5.85;;
36551;SDS011;22559;54.176;12.102;2023-06-26T14:17:39;9.20;;;5.78;;
36551;SDS011;22559;54.176;12.102;2023-06-26T14:20:08;11.80;;;6.07;;
36551;SDS011;22559;54.176;12.102;2023-06-26T14:22:37;8.07;;;6.45;;
36551;SDS011;22559;54.176;12.102;2023-06-26T14:25:06;8.88;;;6.30;;
36551;SDS011;22559;54.176;12.102;2023-06-26T14:27:33;10.45;;;6.72;;
36551;SDS011;22559;54.176;12.102;2023-06-26T14:29:59;22.10;;;14.60;;
36551;SDS011;22559;54.176;12.102;2023-06-26T14:32:26;7.25;;;5.47;;